sensor_id;sensor_type;location;lat;lon;timestamp;temperature;humidity
25482;DHT22;13395;50.752;4.268;2023-11-18T00:00:50;7.50;99.90
25482;DHT22;13395;50.752;4.268;2023-11-18T00:03:16;7.50;99.90
25482;DHT22;13395;50.752;4.268;2023-11-18T00:05:42;7.50;99.90
25482;DHT22;13395;50.752;4.268;2023-11-18T00:08:07;7.60;99.90
25482;DHT22;13395;50.752;4.268;2023-11-18T00:10:33;7.70;99.90
25482;DHT22;13395;50.752;4.268;2023-11-18T00:12:58;7.70;99.90
25482;DHT22;13395;50.752;4.268;2023-11-18T00:15:24;7.70;99.90
25482;DHT22;13395;50.752;4.268;2023-11-18T00:17:49;7.50;99.90
25482;DHT22;13395;50.752;4.268;2023-11-18T00:20:15;7.50;99.90
25482;DHT22;13395;50.752;4.268;2023-11-18T00:22:41;7.50;99.90
25482;DHT22;13395;50.752;4.268;2023-11-18T00:25:07;7.50;99.90
25482;DHT22;13395;50.752;4.268;2023-11-18T00:27:34;7.40;99.90
25482;DHT22;13395;50.752;4.268;2023-11-18T00:30:05;7.40;99.90
25482;DHT22;13395;50.752;4.268;2023-11-18T00:32:33;7.40;99.90
25482;DHT22;13395;50.752;4.268;2023-11-18T00:35:00;7.40;99.90
25482;DHT22;13395;50.752;4.268;2023-11-18T00:37:26;7.50;99.90
25482;DHT22;13395;50.752;4.268;2023-11-18T00:39:52;7.50;99.90
25482;DHT22;13395;50.752;4.268;2023-11-18T00:42:18;7.60;99.90
25482;DHT22;13395;50.752;4.268;2023-11-18T00:44:43;7.60;99.90
25482;DHT22;13395;50.752;4.268;2023-11-18T00:47:09;7.60;99.90
25482;DHT22;13395;50.752;4.268;2023-11-18T00:49:34;7.50;99.90
25482;DHT22;13395;50.752;4.268;2023-11-18T00:52:00;7.60;99.90
25482;DHT22;13395;50.752;4.268;2023-11-18T00:54:26;7.70;99.90
25482;DHT22;13395;50.752;4.268;2023-11-18T00:56:52;7.60;99.90
25482;DHT22;13395;50.752;4.268;2023-11-18T00:59:18;7.60;99.90
25482;DHT22;13395;50.752;4.268;2023-11-18T01:01:43;7.60;99.90
25482;DHT22;13395;50.752;4.268;2023-11-18T01:04:09;7.80;99.90
25482;DHT22;13395;50.752;4.268;2023-11-18T01:06:34;7.70;99.90
25482;DHT22;13395;50.752;4.268;2023-11-18T01:09:00;7.70;99.90
25482;DHT22;13395;50.752;4.268;2023-11-18T01:11:26;7.70;99.90
25482;DHT22;13395;50.752;4.268;2023-11-18T01:13:52;8.00;99.90
25482;DHT22;13395;50.752;4.268;2023-11-18T01:16:20;7.90;99.90
25482;DHT22;13395;50.752;4.268;2023-11-18T01:18:46;7.80;99.90
25482;DHT22;13395;50.752;4.268;2023-11-18T01:21:11;7.90;99.90
25482;DHT22;13395;50.752;4.268;2023-11-18T01:23:38;7.70;99.90
25482;DHT22;13395;50.752;4.268;2023-11-18T01:26:05;7.70;99.90
25482;DHT22;13395;50.752;4.268;2023-11-18T01:28:34;7.70;99.90
25482;DHT22;13395;50.752;4.268;2023-11-18T01:31:07;7.70;99.90
25482;DHT22;13395;50.752;4.268;2023-11-18T01:33:39;7.70;99.90
25482;DHT22;13395;50.752;4.268;2023-11-18T01:36:09;8.00;99.90
25482;DHT22;13395;50.752;4.268;2023-11-18T01:38:35;7.80;99.90
25482;DHT22;13395;50.752;4.268;2023-11-18T01:41:03;7.80;99.90
25482;DHT22;13395;50.752;4.268;2023-11-18T01:43:30;7.70;99.90
25482;DHT22;13395;50.752;4.268;2023-11-18T01:46:04;7.90;99.90
25482;DHT22;13395;50.752;4.268;2023-11-18T01:48:31;7.80;99.90
25482;DHT22;13395;50.752;4.268;2023-11-18T01:50:59;7.80;99.90
25482;DHT22;13395;50.752;4.268;2023-11-18T01:53:26;7.80;99.90
25482;DHT22;13395;50.752;4.268;2023-11-18T01:55:53;7.80;99.90
25482;DHT22;13395;50.752;4.268;2023-11-18T01:58:20;7.90;99.90
25482;DHT22;13395;50.752;4.268;2023-11-18T02:00:48;7.80;99.90
25482;DHT22;13395;50.752;4.268;2023-11-18T02:03:16;7.90;99.90
25482;DHT22;13395;50.752;4.268;2023-11-18T02:05:42;7.90;99.90
25482;DHT22;13395;50.752;4.268;2023-11-18T02:08:08;7.90;99.90
25482;DHT22;13395;50.752;4.268;2023-11-18T02:10:35;8.00;99.90
25482;DHT22;13395;50.752;4.268;2023-11-18T02:13:12;8.20;99.90
25482;DHT22;13395;50.752;4.268;2023-11-18T02:15:39;7.90;99.90
25482;DHT22;13395;50.752;4.268;2023-11-18T02:18:06;8.00;99.90
25482;DHT22;13395;50.752;4.268;2023-11-18T02:20:35;7.90;99.90
25482;DHT22;13395;50.752;4.268;2023-11-18T02:23:02;7.90;99.90
25482;DHT22;13395;50.752;4.268;2023-11-18T02:25:29;8.00;99.90
25482;DHT22;13395;50.752;4.268;2023-11-18T02:27:58;7.90;99.90
25482;DHT22;13395;50.752;4.268;2023-11-18T02:30:24;8.00;99.90
25482;DHT22;13395;50.752;4.268;2023-11-18T02:33:18;8.10;99.90
25482;DHT22;13395;50.752;4.268;2023-11-18T02:35:51;8.00;99.90
25482;DHT22;13395;50.752;4.268;2023-11-18T02:38:22;8.00;99.90
25482;DHT22;13395;50.752;4.268;2023-11-18T02:40:51;8.10;99.90
25482;DHT22;13395;50.752;4.268;2023-11-18T02:43:19;8.00;99.90
25482;DHT22;13395;50.752;4.268;2023-11-18T02:45:44;8.20;99.90
25482;DHT22;13395;50.752;4.268;2023-11-18T02:48:12;8.20;99.90
25482;DHT22;13395;50.752;4.268;2023-11-18T02:50:38;8.20;99.90
25482;DHT22;13395;50.752;4.268;2023-11-18T02:53:06;8.00;99.90
25482;DHT22;13395;50.752;4.268;2023-11-18T02:55:35;8.10;99.90
25482;DHT22;13395;50.752;4.268;2023-11-18T02:58:01;8.10;99.90
25482;DHT22;13395;50.752;4.268;2023-11-18T03:00:28;8.10;99.90
25482;DHT22;13395;50.752;4.268;2023-11-18T03:02:54;8.10;99.90
25482;DHT22;13395;50.752;4.268;2023-11-18T03:05:20;8.20;99.90
25482;DHT22;13395;50.752;4.268;2023-11-18T03:07:47;8.00;99.90
25482;DHT22;13395;50.752;4.268;2023-11-18T03:10:16;8.10;99.90
25482;DHT22;13395;50.752;4.268;2023-11-18T03:12:52;8.20;99.90
25482;DHT22;13395;50.752;4.268;2023-11-18T03:15:18;8.10;99.90
25482;DHT22;13395;50.752;4.268;2023-11-18T03:17:47;8.20;99.90
25482;DHT22;13395;50.752;4.268;2023-11-18T03:20:14;8.20;99.90
25482;DHT22;13395;50.752;4.268;2023-11-18T03:22:43;8.20;99.90
25482;DHT22;13395;50.752;4.268;2023-11-18T03:25:09;8.20;99.90
25482;DHT22;13395;50.752;4.268;2023-11-18T03:27:35;8.20;99.90
25482;DHT22;13395;50.752;4.268;2023-11-18T03:30:00;8.20;99.90
25482;DHT22;13395;50.752;4.268;2023-11-18T03:32:26;8.20;99.90
25482;DHT22;13395;50.752;4.268;2023-11-18T03:34:52;8.20;99.90
25482;DHT22;13395;50.752;4.268;2023-11-18T03:37:17;8.20;99.90
25482;DHT22;13395;50.752;4.268;2023-11-18T03:39:45;8.30;99.90
25482;DHT22;13395;50.752;4.268;2023-11-18T03:42:10;8.30;99.90
25482;DHT22;13395;50.752;4.268;2023-11-18T03:44:36;8.40;99.90
25482;DHT22;13395;50.752;4.268;2023-11-18T03:47:03;8.30;99.90
25482;DHT22;13395;50.752;4.268;2023-11-18T03:49:28;8.40;99.90
25482;DHT22;13395;50.752;4.268;2023-11-18T03:51:54;8.50;99.90
25482;DHT22;13395;50.752;4.268;2023-11-18T03:54:20;8.50;99.90
25482;DHT22;13395;50.752;4.268;2023-11-18T03:56:45;8.60;99.90
25482;DHT22;13395;50.752;4.268;2023-11-18T03:59:11;8.40;99.90
25482;DHT22;13395;50.752;4.268;2023-11-18T04:01:36;8.50;99.90
25482;DHT22;13395;50.752;4.268;2023-11-18T04:04:02;8.40;99.90
25482;DHT22;13395;50.752;4.268;2023-11-18T04:06:29;8.50;99.90
25482;DHT22;13395;50.752;4.268;2023-11-18T04:08:55;8.50;99.90
25482;DHT22;13395;50.752;4.268;2023-11-18T04:11:20;8.60;99.90
25482;DHT22;13395;50.752;4.268;2023-11-18T04:13:46;8.70;99.90
25482;DHT22;13395;50.752;4.268;2023-11-18T04:16:12;8.70;99.90
25482;DHT22;13395;50.752;4.268;2023-11-18T04:18:39;8.60;99.90
25482;DHT22;13395;50.752;4.268;2023-11-18T04:21:06;8.50;99.90
25482;DHT22;13395;50.752;4.268;2023-11-18T04:23:32;8.50;99.90
25482;DHT22;13395;50.752;4.268;2023-11-18T04:25:58;8.50;99.90
25482;DHT22;13395;50.752;4.268;2023-11-18T04:28:24;8.40;99.90
25482;DHT22;13395;50.752;4.268;2023-11-18T04:30:49;8.40;99.90
25482;DHT22;13395;50.752;4.268;2023-11-18T04:33:15;8.40;99.90
25482;DHT22;13395;50.752;4.268;2023-11-18T04:35:41;8.40;99.90
25482;DHT22;13395;50.752;4.268;2023-11-18T04:38:06;8.60;99.90
25482;DHT22;13395;50.752;4.268;2023-11-18T04:40:32;8.60;99.90
25482;DHT22;13395;50.752;4.268;2023-11-18T04:42:57;8.60;99.90
25482;DHT22;13395;50.752;4.268;2023-11-18T04:45:23;8.60;99.90
25482;DHT22;13395;50.752;4.268;2023-11-18T04:47:48;8.60;99.90
25482;DHT22;13395;50.752;4.268;2023-11-18T04:50:16;8.60;99.90
25482;DHT22;13395;50.752;4.268;2023-11-18T04:52:42;8.60;99.90
25482;DHT22;13395;50.752;4.268;2023-11-18T04:55:08;8.60;99.90
25482;DHT22;13395;50.752;4.268;2023-11-18T04:57:34;8.60;99.90
25482;DHT22;13395;50.752;4.268;2023-11-18T05:00:02;8.70;99.90
25482;DHT22;13395;50.752;4.268;2023-11-18T05:02:36;8.70;99.90
25482;DHT22;13395;50.752;4.268;2023-11-18T05:05:01;9.00;99.90
25482;DHT22;13395;50.752;4.268;2023-11-18T05:07:30;8.80;99.90
25482;DHT22;13395;50.752;4.268;2023-11-18T05:09:56;8.90;99.90
25482;DHT22;13395;50.752;4.268;2023-11-18T05:12:21;8.80;99.90
25482;DHT22;13395;50.752;4.268;2023-11-18T05:14:47;8.90;99.90
25482;DHT22;13395;50.752;4.268;2023-11-18T05:17:15;8.90;99.90
25482;DHT22;13395;50.752;4.268;2023-11-18T05:19:41;9.00;99.90
25482;DHT22;13395;50.752;4.268;2023-11-18T05:22:08;9.20;99.90
25482;DHT22;13395;50.752;4.268;2023-11-18T05:24:34;8.90;99.90
25482;DHT22;13395;50.752;4.268;2023-11-18T05:27:00;9.00;99.90
25482;DHT22;13395;50.752;4.268;2023-11-18T05:29:27;9.20;99.90
25482;DHT22;13395;50.752;4.268;2023-11-18T05:31:53;9.00;99.90
25482;DHT22;13395;50.752;4.268;2023-11-18T05:34:20;9.00;99.90
25482;DHT22;13395;50.752;4.268;2023-11-18T05:36:46;9.30;99.90
25482;DHT22;13395;50.752;4.268;2023-11-18T05:39:12;9.10;99.90
25482;DHT22;13395;50.752;4.268;2023-11-18T05:41:40;9.30;99.90
25482;DHT22;13395;50.752;4.268;2023-11-18T05:44:06;9.20;99.90
25482;DHT22;13395;50.752;4.268;2023-11-18T05:46:35;9.20;99.90
25482;DHT22;13395;50.752;4.268;2023-11-18T05:49:03;9.20;99.90
25482;DHT22;13395;50.752;4.268;2023-11-18T05:51:33;9.20;99.90
25482;DHT22;13395;50.752;4.268;2023-11-18T05:53:58;9.30;99.90
25482;DHT22;13395;50.752;4.268;2023-11-18T05:56:25;9.40;99.90
25482;DHT22;13395;50.752;4.268;2023-11-18T05:58:52;9.30;99.90
25482;DHT22;13395;50.752;4.268;2023-11-18T06:01:21;9.20;99.90
25482;DHT22;13395;50.752;4.268;2023-11-18T06:03:47;9.20;99.90
25482;DHT22;13395;50.752;4.268;2023-11-18T06:06:14;9.20;99.90
25482;DHT22;13395;50.752;4.268;2023-11-18T06:08:41;9.30;99.90
25482;DHT22;13395;50.752;4.268;2023-11-18T06:11:08;9.30;99.90
25482;DHT22;13395;50.752;4.268;2023-11-18T06:13:46;9.30;99.90
25482;DHT22;13395;50.752;4.268;2023-11-18T06:16:20;9.30;99.90
25482;DHT22;13395;50.752;4.268;2023-11-18T06:18:47;9.30;99.90
25482;DHT22;13395;50.752;4.268;2023-11-18T06:21:14;9.40;99.90
25482;DHT22;13395;50.752;4.268;2023-11-18T06:23:41;9.40;99.90
25482;DHT22;13395;50.752;4.268;2023-11-18T06:26:07;9.40;99.90
25482;DHT22;13395;50.752;4.268;2023-11-18T06:28:37;9.40;99.90
25482;DHT22;13395;50.752;4.268;2023-11-18T06:31:03;9.30;99.90
25482;DHT22;13395;50.752;4.268;2023-11-18T06:33:28;9.20;99.90
25482;DHT22;13395;50.752;4.268;2023-11-18T06:35:54;9.30;99.90
25482;DHT22;13395;50.752;4.268;2023-11-18T06:38:21;9.30;99.90
25482;DHT22;13395;50.752;4.268;2023-11-18T06:40:48;9.30;99.90
25482;DHT22;13395;50.752;4.268;2023-11-18T06:43:18;9.40;99.90
25482;DHT22;13395;50.752;4.268;2023-11-18T06:45:44;9.40;99.90
25482;DHT22;13395;50.752;4.268;2023-11-18T06:48:10;9.60;99.90
25482;DHT22;13395;50.752;4.268;2023-11-18T06:50:36;9.50;99.90
25482;DHT22;13395;50.752;4.268;2023-11-18T06:53:01;9.70;99.90
25482;DHT22;13395;50.752;4.268;2023-11-18T06:55:27;9.50;99.90
25482;DHT22;13395;50.752;4.268;2023-11-18T06:57:53;9.40;99.90
25482;DHT22;13395;50.752;4.268;2023-11-18T07:00:21;9.40;99.90
25482;DHT22;13395;50.752;4.268;2023-11-18T07:02:47;9.50;99.90
25482;DHT22;13395;50.752;4.268;2023-11-18T07:05:13;9.50;99.90
25482;DHT22;13395;50.752;4.268;2023-11-18T07:07:40;9.70;99.90
25482;DHT22;13395;50.752;4.268;2023-11-18T07:10:08;9.60;99.90
25482;DHT22;13395;50.752;4.268;2023-11-18T07:12:38;9.50;99.90
25482;DHT22;13395;50.752;4.268;2023-11-18T07:15:04;9.50;99.90
25482;DHT22;13395;50.752;4.268;2023-11-18T07:17:30;9.40;99.90
25482;DHT22;13395;50.752;4.268;2023-11-18T07:19:56;9.60;99.90
25482;DHT22;13395;50.752;4.268;2023-11-18T07:22:22;9.50;99.90
25482;DHT22;13395;50.752;4.268;2023-11-18T07:24:47;9.60;99.90
25482;DHT22;13395;50.752;4.268;2023-11-18T07:27:13;9.40;99.90
25482;DHT22;13395;50.752;4.268;2023-11-18T07:29:39;9.30;99.90
25482;DHT22;13395;50.752;4.268;2023-11-18T07:32:04;9.40;99.90
25482;DHT22;13395;50.752;4.268;2023-11-18T07:34:35;9.50;99.90
25482;DHT22;13395;50.752;4.268;2023-11-18T07:37:01;9.50;99.90
25482;DHT22;13395;50.752;4.268;2023-11-18T07:39:30;9.40;99.90
25482;DHT22;13395;50.752;4.268;2023-11-18T07:42:13;9.20;99.90
25482;DHT22;13395;50.752;4.268;2023-11-18T07:44:39;9.30;99.90
25482;DHT22;13395;50.752;4.268;2023-11-18T07:47:05;9.10;99.90
25482;DHT22;13395;50.752;4.268;2023-11-18T07:49:34;9.20;99.90
25482;DHT22;13395;50.752;4.268;2023-11-18T07:52:04;9.20;99.90
25482;DHT22;13395;50.752;4.268;2023-11-18T07:54:29;9.30;99.90
25482;DHT22;13395;50.752;4.268;2023-11-18T07:56:55;9.40;99.90
25482;DHT22;13395;50.752;4.268;2023-11-18T07:59:21;9.20;99.90
25482;DHT22;13395;50.752;4.268;2023-11-18T08:01:49;9.40;99.90
25482;DHT22;13395;50.752;4.268;2023-11-18T08:04:15;9.20;99.90
25482;DHT22;13395;50.752;4.268;2023-11-18T08:06:42;9.20;99.90
25482;DHT22;13395;50.752;4.268;2023-11-18T08:09:11;9.40;99.90
25482;DHT22;13395;50.752;4.268;2023-11-18T08:11:42;9.40;99.90
25482;DHT22;13395;50.752;4.268;2023-11-18T08:14:08;9.10;99.90
25482;DHT22;13395;50.752;4.268;2023-11-18T08:16:34;8.90;99.90
25482;DHT22;13395;50.752;4.268;2023-11-18T08:19:00;9.20;99.90
25482;DHT22;13395;50.752;4.268;2023-11-18T08:21:28;9.10;99.90
25482;DHT22;13395;50.752;4.268;2023-11-18T08:23:54;9.20;99.90
25482;DHT22;13395;50.752;4.268;2023-11-18T08:26:21;9.20;99.90
25482;DHT22;13395;50.752;4.268;2023-11-18T08:28:46;9.20;99.90
25482;DHT22;13395;50.752;4.268;2023-11-18T08:31:15;9.40;99.90
25482;DHT22;13395;50.752;4.268;2023-11-18T08:33:42;9.30;99.90
25482;DHT22;13395;50.752;4.268;2023-11-18T08:36:08;9.40;99.90
25482;DHT22;13395;50.752;4.268;2023-11-18T08:38:34;9.20;99.90
25482;DHT22;13395;50.752;4.268;2023-11-18T08:41:01;9.20;99.90
25482;DHT22;13395;50.752;4.268;2023-11-18T08:43:26;9.50;99.90
25482;DHT22;13395;50.752;4.268;2023-11-18T08:45:54;9.30;99.90
25482;DHT22;13395;50.752;4.268;2023-11-18T08:48:21;9.50;99.90
25482;DHT22;13395;50.752;4.268;2023-11-18T08:50:48;9.30;99.90
25482;DHT22;13395;50.752;4.268;2023-11-18T08:53:14;9.30;99.90
25482;DHT22;13395;50.752;4.268;2023-11-18T08:55:43;9.30;99.90
25482;DHT22;13395;50.752;4.268;2023-11-18T08:58:22;9.40;99.90
25482;DHT22;13395;50.752;4.268;2023-11-18T09:00:50;9.50;99.90
25482;DHT22;13395;50.752;4.268;2023-11-18T09:03:23;9.40;99.90
25482;DHT22;13395;50.752;4.268;2023-11-18T09:06:03;9.50;99.90
25482;DHT22;13395;50.752;4.268;2023-11-18T09:08:37;9.40;99.90
25482;DHT22;13395;50.752;4.268;2023-11-18T09:11:12;9.40;99.90
25482;DHT22;13395;50.752;4.268;2023-11-18T09:13:43;9.40;99.90
25482;DHT22;13395;50.752;4.268;2023-11-18T09:16:11;9.40;99.90
25482;DHT22;13395;50.752;4.268;2023-11-18T09:18:41;9.30;99.90
25482;DHT22;13395;50.752;4.268;2023-11-18T09:21:08;9.60;99.90
25482;DHT22;13395;50.752;4.268;2023-11-18T09:23:40;9.40;99.90
25482;DHT22;13395;50.752;4.268;2023-11-18T09:26:06;9.20;99.90
25482;DHT22;13395;50.752;4.268;2023-11-18T09:28:36;9.40;99.90
25482;DHT22;13395;50.752;4.268;2023-11-18T09:31:02;9.30;99.90
25482;DHT22;13395;50.752;4.268;2023-11-18T09:33:33;9.40;99.90
25482;DHT22;13395;50.752;4.268;2023-11-18T09:36:09;9.30;99.90
25482;DHT22;13395;50.752;4.268;2023-11-18T09:38:41;9.40;99.90
25482;DHT22;13395;50.752;4.268;2023-11-18T09:41:08;9.40;99.90
25482;DHT22;13395;50.752;4.268;2023-11-18T09:43:46;9.50;99.90
25482;DHT22;13395;50.752;4.268;2023-11-18T09:46:28;9.50;99.90
25482;DHT22;13395;50.752;4.268;2023-11-18T09:49:17;9.50;99.90
25482;DHT22;13395;50.752;4.268;2023-11-18T09:51:54;9.60;99.90
25482;DHT22;13395;50.752;4.268;2023-11-18T09:57:15;9.60;99.90
25482;DHT22;13395;50.752;4.268;2023-11-18T10:00:01;9.60;99.90
25482;DHT22;13395;50.752;4.268;2023-11-18T10:02:39;9.70;99.90
25482;DHT22;13395;50.752;4.268;2023-11-18T10:05:09;9.60;99.90
25482;DHT22;13395;50.752;4.268;2023-11-18T10:07:39;9.70;99.90
25482;DHT22;13395;50.752;4.268;2023-11-18T10:10:07;9.70;99.90
25482;DHT22;13395;50.752;4.268;2023-11-18T10:12:44;9.60;99.90
25482;DHT22;13395;50.752;4.268;2023-11-18T10:15:21;9.70;99.90
25482;DHT22;13395;50.752;4.268;2023-11-18T10:17:50;9.90;99.90
25482;DHT22;13395;50.752;4.268;2023-11-18T10:23:14;9.90;99.90
25482;DHT22;13395;50.752;4.268;2023-11-18T10:25:52;10.00;99.90
25482;DHT22;13395;50.752;4.268;2023-11-18T10:28:36;10.00;99.90
25482;DHT22;13395;50.752;4.268;2023-11-18T10:31:04;9.90;99.90
25482;DHT22;13395;50.752;4.268;2023-11-18T10:36:04;9.80;99.90
25482;DHT22;13395;50.752;4.268;2023-11-18T10:38:31;9.90;99.90
25482;DHT22;13395;50.752;4.268;2023-11-18T10:40:58;10.00;99.90
25482;DHT22;13395;50.752;4.268;2023-11-18T10:43:27;10.00;99.90
25482;DHT22;13395;50.752;4.268;2023-11-18T10:46:24;10.20;99.90
25482;DHT22;13395;50.752;4.268;2023-11-18T10:48:51;9.90;99.90
25482;DHT22;13395;50.752;4.268;2023-11-18T10:51:21;9.80;99.90
25482;DHT22;13395;50.752;4.268;2023-11-18T10:53:53;9.90;99.90
25482;DHT22;13395;50.752;4.268;2023-11-18T10:56:22;10.00;99.90
25482;DHT22;13395;50.752;4.268;2023-11-18T10:59:12;10.00;99.90
25482;DHT22;13395;50.752;4.268;2023-11-18T11:01:42;9.80;99.90
25482;DHT22;13395;50.752;4.268;2023-11-18T11:04:12;9.70;99.90
25482;DHT22;13395;50.752;4.268;2023-11-18T11:06:45;9.70;99.90
25482;DHT22;13395;50.752;4.268;2023-11-18T11:09:18;9.80;99.90
25482;DHT22;13395;50.752;4.268;2023-11-18T11:11:49;9.80;99.90
25482;DHT22;13395;50.752;4.268;2023-11-18T11:14:16;9.80;99.90
25482;DHT22;13395;50.752;4.268;2023-11-18T11:17:06;9.90;99.90
25482;DHT22;13395;50.752;4.268;2023-11-18T11:19:50;9.80;99.90
25482;DHT22;13395;50.752;4.268;2023-11-18T11:22:24;9.80;99.90
25482;DHT22;13395;50.752;4.268;2023-11-18T11:27:38;9.90;99.90
25482;DHT22;13395;50.752;4.268;2023-11-18T11:30:23;9.90;99.90
25482;DHT22;13395;50.752;4.268;2023-11-18T11:32:57;9.90;99.90
25482;DHT22;13395;50.752;4.268;2023-11-18T11:35:30;9.90;99.90
25482;DHT22;13395;50.752;4.268;2023-11-18T11:37:56;10.00;99.90
25482;DHT22;13395;50.752;4.268;2023-11-18T11:40:31;10.00;99.90
25482;DHT22;13395;50.752;4.268;2023-11-18T11:42:56;10.00;99.90
25482;DHT22;13395;50.752;4.268;2023-11-18T11:45:23;10.10;99.90
25482;DHT22;13395;50.752;4.268;2023-11-18T11:47:55;10.20;99.90
25482;DHT22;13395;50.752;4.268;2023-11-18T11:50:45;10.10;99.90
25482;DHT22;13395;50.752;4.268;2023-11-18T11:53:18;10.10;99.90
25482;DHT22;13395;50.752;4.268;2023-11-18T11:55:49;10.20;99.90
25482;DHT22;13395;50.752;4.268;2023-11-18T11:58:29;10.20;99.90
25482;DHT22;13395;50.752;4.268;2023-11-18T12:01:14;10.10;99.90
25482;DHT22;13395;50.752;4.268;2023-11-18T12:03:41;10.10;99.90
25482;DHT22;13395;50.752;4.268;2023-11-18T12:06:08;10.40;99.90
25482;DHT22;13395;50.752;4.268;2023-11-18T12:08:37;10.20;99.90
25482;DHT22;13395;50.752;4.268;2023-11-18T12:11:05;10.20;99.90
25482;DHT22;13395;50.752;4.268;2023-11-18T12:13:35;10.30;99.90
25482;DHT22;13395;50.752;4.268;2023-11-18T12:16:05;10.30;99.90
25482;DHT22;13395;50.752;4.268;2023-11-18T12:18:31;10.20;99.90
25482;DHT22;13395;50.752;4.268;2023-11-18T12:21:02;10.30;99.90
25482;DHT22;13395;50.752;4.268;2023-11-18T12:23:29;10.30;99.90
25482;DHT22;13395;50.752;4.268;2023-11-18T12:25:56;10.20;99.90
25482;DHT22;13395;50.752;4.268;2023-11-18T12:28:27;10.20;99.90
25482;DHT22;13395;50.752;4.268;2023-11-18T12:30:54;10.20;99.90
25482;DHT22;13395;50.752;4.268;2023-11-18T12:39:44;10.20;99.90
25482;DHT22;13395;50.752;4.268;2023-11-18T12:48:27;10.00;99.90
25482;DHT22;13395;50.752;4.268;2023-11-18T12:50:57;10.10;99.90
25482;DHT22;13395;50.752;4.268;2023-11-18T12:53:24;10.10;99.90
25482;DHT22;13395;50.752;4.268;2023-11-18T12:55:50;10.20;99.90
25482;DHT22;13395;50.752;4.268;2023-11-18T12:58:18;10.10;99.90
25482;DHT22;13395;50.752;4.268;2023-11-18T13:00:43;10.20;99.90
25482;DHT22;13395;50.752;4.268;2023-11-18T13:03:10;10.20;99.90
25482;DHT22;13395;50.752;4.268;2023-11-18T13:05:37;10.30;99.90
25482;DHT22;13395;50.752;4.268;2023-11-18T13:08:04;10.20;99.90
25482;DHT22;13395;50.752;4.268;2023-11-18T13:10:30;10.20;99.90
25482;DHT22;13395;50.752;4.268;2023-11-18T13:12:56;10.30;99.90
25482;DHT22;13395;50.752;4.268;2023-11-18T13:15:24;10.40;99.90
25482;DHT22;13395;50.752;4.268;2023-11-18T13:18:00;10.10;99.90
25482;DHT22;13395;50.752;4.268;2023-11-18T13:20:26;10.20;99.90
25482;DHT22;13395;50.752;4.268;2023-11-18T13:22:52;10.20;99.90
25482;DHT22;13395;50.752;4.268;2023-11-18T13:25:24;10.30;99.90
25482;DHT22;13395;50.752;4.268;2023-11-18T13:27:50;10.30;99.90
25482;DHT22;13395;50.752;4.268;2023-11-18T13:30:17;10.50;99.90
25482;DHT22;13395;50.752;4.268;2023-11-18T13:32:43;10.20;99.90
25482;DHT22;13395;50.752;4.268;2023-11-18T13:35:10;10.20;99.90
25482;DHT22;13395;50.752;4.268;2023-11-18T13:37:39;10.40;99.90
25482;DHT22;13395;50.752;4.268;2023-11-18T13:40:09;10.40;99.90
25482;DHT22;13395;50.752;4.268;2023-11-18T13:42:34;10.30;99.90
25482;DHT22;13395;50.752;4.268;2023-11-18T13:45:04;10.40;99.90
25482;DHT22;13395;50.752;4.268;2023-11-18T13:47:36;10.40;99.90
25482;DHT22;13395;50.752;4.268;2023-11-18T13:50:09;10.40;99.90
25482;DHT22;13395;50.752;4.268;2023-11-18T13:52:36;10.50;99.90
25482;DHT22;13395;50.752;4.268;2023-11-18T13:55:06;10.50;99.90
25482;DHT22;13395;50.752;4.268;2023-11-18T13:57:32;10.40;99.90
25482;DHT22;13395;50.752;4.268;2023-11-18T13:59:58;10.50;99.90
25482;DHT22;13395;50.752;4.268;2023-11-18T14:02:24;10.50;99.90
25482;DHT22;13395;50.752;4.268;2023-11-18T14:04:50;10.50;99.90
25482;DHT22;13395;50.752;4.268;2023-11-18T14:07:16;10.60;99.90
25482;DHT22;13395;50.752;4.268;2023-11-18T14:09:43;10.50;99.90
25482;DHT22;13395;50.752;4.268;2023-11-18T14:12:11;10.50;99.90
25482;DHT22;13395;50.752;4.268;2023-11-18T14:14:37;10.70;99.90
25482;DHT22;13395;50.752;4.268;2023-11-18T14:17:04;10.60;99.90
25482;DHT22;13395;50.752;4.268;2023-11-18T14:19:31;10.60;99.90
25482;DHT22;13395;50.752;4.268;2023-11-18T14:21:57;10.80;99.90
25482;DHT22;13395;50.752;4.268;2023-11-18T14:24:23;10.70;99.90
25482;DHT22;13395;50.752;4.268;2023-11-18T14:26:53;10.80;99.90
25482;DHT22;13395;50.752;4.268;2023-11-18T14:29:19;10.80;99.90
25482;DHT22;13395;50.752;4.268;2023-11-18T14:31:45;10.50;99.90
25482;DHT22;13395;50.752;4.268;2023-11-18T14:34:11;10.50;99.90
25482;DHT22;13395;50.752;4.268;2023-11-18T14:36:37;10.50;99.90
25482;DHT22;13395;50.752;4.268;2023-11-18T14:39:03;10.50;99.90
25482;DHT22;13395;50.752;4.268;2023-11-18T14:41:30;10.60;99.90
25482;DHT22;13395;50.752;4.268;2023-11-18T14:43:57;10.80;99.90
25482;DHT22;13395;50.752;4.268;2023-11-18T14:46:23;10.60;99.90
25482;DHT22;13395;50.752;4.268;2023-11-18T14:48:49;10.60;99.90
25482;DHT22;13395;50.752;4.268;2023-11-18T14:51:15;10.70;99.90
25482;DHT22;13395;50.752;4.268;2023-11-18T14:53:41;10.70;99.90
25482;DHT22;13395;50.752;4.268;2023-11-18T14:56:08;10.80;99.90
25482;DHT22;13395;50.752;4.268;2023-11-18T14:58:34;11.00;99.90
25482;DHT22;13395;50.752;4.268;2023-11-18T15:01:01;10.70;99.90
25482;DHT22;13395;50.752;4.268;2023-11-18T15:03:27;10.70;99.90
25482;DHT22;13395;50.752;4.268;2023-11-18T15:05:53;10.70;99.90
25482;DHT22;13395;50.752;4.268;2023-11-18T15:08:18;10.90;99.90
25482;DHT22;13395;50.752;4.268;2023-11-18T15:10:44;10.80;99.90
25482;DHT22;13395;50.752;4.268;2023-11-18T15:13:10;10.80;99.90
25482;DHT22;13395;50.752;4.268;2023-11-18T15:15:43;10.90;99.90
25482;DHT22;13395;50.752;4.268;2023-11-18T15:18:10;10.90;99.90
25482;DHT22;13395;50.752;4.268;2023-11-18T15:20:40;11.00;99.90
25482;DHT22;13395;50.752;4.268;2023-11-18T15:23:09;11.00;99.90
25482;DHT22;13395;50.752;4.268;2023-11-18T15:25:35;11.10;99.90
25482;DHT22;13395;50.752;4.268;2023-11-18T15:28:01;11.10;99.90
25482;DHT22;13395;50.752;4.268;2023-11-18T15:30:26;11.10;99.90
25482;DHT22;13395;50.752;4.268;2023-11-18T15:32:53;11.10;99.90
25482;DHT22;13395;50.752;4.268;2023-11-18T15:35:20;11.20;99.90
25482;DHT22;13395;50.752;4.268;2023-11-18T15:37:46;11.10;99.90
25482;DHT22;13395;50.752;4.268;2023-11-18T15:40:15;11.10;99.90
25482;DHT22;13395;50.752;4.268;2023-11-18T15:42:45;11.00;99.90
25482;DHT22;13395;50.752;4.268;2023-11-18T15:45:16;11.10;99.90
25482;DHT22;13395;50.752;4.268;2023-11-18T15:47:42;11.20;99.90
25482;DHT22;13395;50.752;4.268;2023-11-18T15:50:10;11.20;99.90
25482;DHT22;13395;50.752;4.268;2023-11-18T15:52:45;11.20;99.90
25482;DHT22;13395;50.752;4.268;2023-11-18T15:55:11;11.20;99.90
25482;DHT22;13395;50.752;4.268;2023-11-18T15:57:48;11.20;99.90
25482;DHT22;13395;50.752;4.268;2023-11-18T16:00:24;11.40;99.90
25482;DHT22;13395;50.752;4.268;2023-11-18T16:02:53;11.40;99.90
25482;DHT22;13395;50.752;4.268;2023-11-18T16:05:21;11.40;99.90
25482;DHT22;13395;50.752;4.268;2023-11-18T16:07:49;11.40;99.90
25482;DHT22;13395;50.752;4.268;2023-11-18T16:10:16;11.30;99.90
25482;DHT22;13395;50.752;4.268;2023-11-18T16:12:54;11.40;99.90